Time;durP1;ratioP1;P1;durP2;ratioP2;P2;SDS_P1;SDS_P2;PMS_P1;PMS_P2;Temp;Humidity;BMP_temperature;BMP_pressure;BME280_temperature;BME280_humidity;BME280_pressure;Samples;Min_cycle;Max_cycle;Signal;HPM_P1;HPM_P2
2022/12/07 00:01:22;;;;;;;32.80;12.10;;;2.10;99.90;;;;;;4977232;28;20600;-82
2022/12/07 00:03:51;;;;;;;17.47;11.17;;;2.10;99.90;;;;;;4982450;28;20503;-83
2022/12/07 00:06:21;;;;;;;18.90;13.27;;;2.10;99.90;;;;;;4980183;28;20333;-82
2022/12/07 00:08:48;;;;;;;18.43;13.27;;;2.20;99.90;;;;;;4979385;28;20238;-81
2022/12/07 00:11:17;;;;;;;17.90;13.00;;;2.30;99.90;;;;;;4978618;28;20229;-83
2022/12/07 00:13:44;;;;;;;18.37;13.33;;;2.30;99.90;;;;;;4980907;28;20773;-82
2022/12/07 00:16:13;;;;;;;18.80;13.90;;;2.30;99.90;;;;;;4980953;28;20230;-85
2022/12/07 00:18:40;;;;;;;73.53;15.83;;;2.40;99.90;;;;;;4984167;28;20697;-83
2022/12/07 00:21:09;;;;;;;27.70;14.23;;;2.50;99.90;;;;;;4976205;28;20895;-81
2022/12/07 00:23:38;;;;;;;20.77;14.07;;;2.50;99.90;;;;;;4978671;28;20317;-81
2022/12/07 00:26:06;;;;;;;22.73;13.73;;;2.60;99.90;;;;;;4978506;28;20776;-81
2022/12/07 00:28:34;;;;;;;20.53;14.10;;;2.60;99.90;;;;;;4974826;28;20295;-80
2022/12/07 00:31:03;;;;;;;18.37;13.40;;;2.60;99.90;;;;;;4971139;28;20225;-79
2022/12/07 00:33:30;;;;;;;17.37;13.00;;;2.60;99.90;;;;;;4974424;28;20226;-81
2022/12/07 00:35:57;;;;;;;21.47;13.80;;;2.70;99.90;;;;;;4977246;28;20232;-81
2022/12/07 00:38:24;;;;;;;19.10;13.30;;;2.70;99.90;;;;;;4975870;28;20308;-79
2022/12/07 00:40:57;;;;;;;21.03;13.90;;;2.70;99.90;;;;;;4974053;28;20861;-82
2022/12/07 00:43:23;;;;;;;22.00;14.33;;;2.80;99.90;;;;;;4975669;28;20694;-84
2022/12/07 00:45:53;;;;;;;18.97;13.23;;;2.80;99.90;;;;;;4976369;28;20225;-80
2022/12/07 00:48:20;;;;;;;19.47;13.47;;;2.80;99.90;;;;;;4976843;28;20314;-85
2022/12/07 00:50:47;;;;;;;18.70;13.20;;;2.80;99.90;;;;;;4977878;28;20222;-84
2022/12/07 00:53:15;;;;;;;20.30;14.07;;;2.80;99.90;;;;;;4970464;28;20242;-81
2022/12/07 00:55:42;;;;;;;21.03;13.27;;;2.90;99.90;;;;;;4975756;28;20240;-83
2022/12/07 00:58:11;;;;;;;17.90;12.90;;;2.90;99.90;;;;;;4966945;28;20219;-81
2022/12/07 01:00:40;;;;;;;16.70;12.73;;;2.90;99.90;;;;;;4986526;28;20225;-83
2022/12/07 01:03:09;;;;;;;17.43;12.50;;;2.90;99.90;;;;;;4980655;28;20247;-82
2022/12/07 01:05:36;;;;;;;16.40;10.80;;;2.90;99.90;;;;;;4977335;28;20233;-84
2022/12/07 01:08:04;;;;;;;15.80;11.73;;;2.90;99.90;;;;;;4978701;28;20235;-85
2022/12/07 01:10:31;;;;;;;15.87;11.77;;;2.90;99.90;;;;;;4979237;28;20217;-81
2022/12/07 01:12:59;;;;;;;16.67;11.83;;;2.90;99.90;;;;;;4979727;28;20223;-88
2022/12/07 01:15:27;;;;;;;15.17;11.30;;;2.90;99.90;;;;;;4975994;28;20241;-83
2022/12/07 01:17:55;;;;;;;17.10;10.80;;;2.90;99.90;;;;;;4980936;28;20840;-82
2022/12/07 01:20:21;;;;;;;19.40;11.67;;;3.00;99.90;;;;;;4980553;28;20268;-83
2022/12/07 01:22:48;;;;;;;15.63;11.17;;;3.00;99.90;;;;;;4977134;28;20242;-84
2022/12/07 01:25:15;;;;;;;16.67;11.43;;;3.00;99.90;;;;;;4975959;28;20232;-85
2022/12/07 01:27:41;;;;;;;16.23;10.90;;;3.00;99.90;;;;;;4980094;28;20288;-83
2022/12/07 01:30:11;;;;;;;14.50;10.50;;;3.00;99.90;;;;;;4977705;28;20234;-81
2022/12/07 01:32:39;;;;;;;14.30;10.57;;;3.10;99.90;;;;;;4978729;28;20672;-83
2022/12/07 01:35:06;;;;;;;16.53;10.03;;;3.10;99.90;;;;;;4979381;28;20225;-81
2022/12/07 01:37:36;;;;;;;15.30;10.40;;;3.10;99.90;;;;;;4979976;28;20243;-80
2022/12/07 01:40:04;;;;;;;15.50;10.17;;;3.10;99.90;;;;;;4974786;28;20260;-80
2022/12/07 01:42:31;;;;;;;13.87;9.53;;;3.10;99.90;;;;;;4972347;28;20234;-80
2022/12/07 01:45:44;;;;;;;13.67;9.47;;;3.10;99.90;;;;;;4972431;28;20233;-83
2022/12/07 01:48:16;;;;;;;14.47;9.60;;;3.10;99.90;;;;;;4973662;28;20258;-83
2022/12/07 01:50:45;;;;;;;11.63;8.73;;;3.10;99.90;;;;;;4970075;28;20240;-81
2022/12/07 01:53:14;;;;;;;11.70;9.07;;;3.10;99.90;;;;;;4974423;28;20233;-80
2022/12/07 01:55:45;;;;;;;14.33;9.57;;;3.10;99.90;;;;;;4978139;28;20240;-83
2022/12/07 01:58:12;;;;;;;13.50;9.07;;;3.10;99.90;;;;;;4987821;28;20313;-84
2022/12/07 02:00:42;;;;;;;13.73;9.50;;;3.10;99.90;;;;;;4975937;28;20224;-85
2022/12/07 02:03:15;;;;;;;14.70;9.70;;;3.10;99.90;;;;;;4973112;28;20344;-84
2022/12/07 02:05:44;;;;;;;14.03;9.90;;;3.00;99.90;;;;;;4976728;28;20536;-82
2022/12/07 02:08:12;;;;;;;16.80;9.50;;;3.00;99.90;;;;;;4980530;28;20770;-81
2022/12/07 02:10:40;;;;;;;15.00;8.93;;;3.00;99.90;;;;;;4978771;28;20220;-84
2022/12/07 02:13:11;;;;;;;12.50;9.27;;;3.00;99.90;;;;;;4984372;28;20407;-82
2022/12/07 02:15:52;;;;;;;14.70;9.30;;;2.90;99.90;;;;;;4984971;28;20318;-80
2022/12/07 02:18:28;;;;;;;13.93;9.53;;;2.90;99.90;;;;;;4984572;28;20312;-85
2022/12/07 02:21:04;;;;;;;15.50;10.27;;;2.80;99.90;;;;;;4985435;28;20224;-82
2022/12/07 02:23:44;;;;;;;13.57;9.10;;;2.80;99.90;;;;;;4981021;28;20236;-82
2022/12/07 02:26:41;;;;;;;12.70;8.60;;;2.70;99.90;;;;;;4984265;28;20559;-86
2022/12/07 02:29:17;;;;;;;10.90;8.43;;;2.60;99.90;;;;;;4981397;28;20312;-81
2022/12/07 02:31:50;;;;;;;12.27;7.80;;;2.60;99.90;;;;;;4962128;28;20320;-81
2022/12/07 02:34:23;;;;;;;12.40;8.13;;;2.50;99.90;;;;;;4960884;28;20235;-85
2022/12/07 02:36:56;;;;;;;13.90;8.63;;;2.50;99.90;;;;;;4962273;28;20227;-81
2022/12/07 02:39:32;;;;;;;11.00;7.33;;;2.40;99.90;;;;;;4963913;28;20644;-81
2022/12/07 02:42:03;;;;;;;10.50;6.87;;;2.40;99.90;;;;;;4960905;28;20223;-80
2022/12/07 02:44:33;;;;;;;10.53;6.80;;;2.30;99.90;;;;;;4965603;28;20763;-81
2022/12/07 02:47:04;;;;;;;11.60;6.07;;;2.40;99.90;;;;;;4965296;28;20228;-80
2022/12/07 02:49:32;;;;;;;11.20;6.13;;;2.40;99.90;;;;;;4976495;28;20782;-82
2022/12/07 02:51:59;;;;;;;9.90;5.67;;;2.40;99.90;;;;;;4964371;28;20237;-80
2022/12/07 02:54:26;;;;;;;13.33;7.00;;;2.40;99.90;;;;;;4973740;28;20242;-81
2022/12/07 02:56:58;;;;;;;8.53;5.60;;;2.40;99.90;;;;;;4977589;28;20237;-81
2022/12/07 02:59:36;;;;;;;6.90;4.83;;;2.40;99.90;;;;;;4978125;28;20707;-86
2022/12/07 03:02:16;;;;;;;7.17;4.50;;;2.40;99.90;;;;;;4988173;28;20230;-81
2022/12/07 03:04:53;;;;;;;9.10;4.47;;;2.40;99.90;;;;;;4978023;28;20233;-82
2022/12/07 03:07:28;;;;;;;8.87;5.07;;;2.50;99.90;;;;;;4980905;28;20241;-80
2022/12/07 03:10:01;;;;;;;7.13;4.07;;;2.50;99.90;;;;;;4980205;28;20222;-82
2022/12/07 03:12:32;;;;;;;7.63;4.13;;;2.50;99.90;;;;;;4979021;28;20252;-82
2022/12/07 03:15:06;;;;;;;6.60;3.87;;;2.40;99.90;;;;;;4975627;28;20274;-84
2022/12/07 03:17:38;;;;;;;6.57;3.20;;;2.40;99.90;;;;;;4981492;28;20724;-82
2022/12/07 03:20:08;;;;;;;5.83;3.50;;;2.30;99.90;;;;;;4978527;28;20221;-79
2022/12/07 03:22:38;;;;;;;6.93;3.60;;;2.30;99.90;;;;;;4980459;28;20225;-80
2022/12/07 03:25:09;;;;;;;5.60;3.63;;;2.20;99.90;;;;;;4974676;28;20229;-83
2022/12/07 03:27:43;;;;;;;5.97;3.60;;;2.10;99.90;;;;;;4973165;28;20225;-80
2022/12/07 03:30:16;;;;;;;5.40;3.57;;;2.10;99.90;;;;;;4959374;28;20270;-82
2022/12/07 03:32:46;;;;;;;8.90;3.60;;;2.00;99.90;;;;;;4991404;28;20233;-79
2022/12/07 03:35:17;;;;;;;11.00;3.70;;;2.00;99.90;;;;;;4980506;28;20489;-80
2022/12/07 03:37:49;;;;;;;7.37;3.00;;;1.90;99.90;;;;;;4983322;28;20246;-80
2022/12/07 03:40:21;;;;;;;5.73;2.53;;;1.80;99.90;;;;;;4981629;28;20297;-80
2022/12/07 03:42:49;;;;;;;5.00;2.50;;;1.70;99.90;;;;;;4960883;28;20240;-85
2022/12/07 03:45:18;;;;;;;5.37;2.70;;;1.70;99.90;;;;;;4956583;28;20238;-81
2022/12/07 03:47:51;;;;;;;5.33;3.00;;;1.60;99.90;;;;;;4967508;28;20313;-80
2022/12/07 03:50:26;;;;;;;3.67;2.17;;;1.60;99.90;;;;;;4972123;28;20251;-80
2022/12/07 03:52:56;;;;;;;6.13;2.57;;;1.50;99.90;;;;;;4975972;28;20226;-80
2022/12/07 03:55:29;;;;;;;10.57;2.80;;;1.50;99.90;;;;;;4977044;28;20248;-82
2022/12/07 03:58:00;;;;;;;6.10;2.10;;;1.50;99.90;;;;;;4998988;28;20236;-83
2022/12/07 04:00:29;;;;;;;4.40;2.20;;;1.40;99.90;;;;;;4971475;28;20222;-82
2022/12/07 04:02:56;;;;;;;5.73;2.00;;;1.40;99.90;;;;;;4977194;28;20245;-82
2022/12/07 04:05:24;;;;;;;7.90;2.10;;;1.40;99.90;;;;;;4979936;28;20232;-80
2022/12/07 04:07:51;;;;;;;3.27;1.93;;;1.40;99.90;;;;;;4971541;28;20224;-78
2022/12/07 04:10:18;;;;;;;3.03;1.80;;;1.30;99.90;;;;;;4976504;28;20238;-78
2022/12/07 04:12:45;;;;;;;4.33;1.90;;;1.30;99.90;;;;;;4972162;28;20239;-78
2022/12/07 04:15:12;;;;;;;3.53;2.00;;;1.30;99.90;;;;;;4972879;28;20890;-78
2022/12/07 04:17:40;;;;;;;2.93;1.87;;;1.20;99.90;;;;;;4976075;28;20922;-78
2022/12/07 04:20:08;;;;;;;3.23;2.00;;;1.20;99.90;;;;;;4980062;28;20232;-79
2022/12/07 04:22:35;;;;;;;5.33;2.20;;;1.20;99.90;;;;;;4976524;28;20235;-78
2022/12/07 04:25:02;;;;;;;3.23;1.83;;;1.10;99.90;;;;;;4981117;28;20314;-79
2022/12/07 04:27:28;;;;;;;9.93;2.13;;;1.10;99.90;;;;;;4976142;28;20248;-79
2022/12/07 04:29:55;;;;;;;3.83;2.20;;;1.10;99.90;;;;;;4976573;28;20228;-78
2022/12/07 04:32:22;;;;;;;4.33;2.00;;;1.10;99.90;;;;;;4980657;28;20228;-78
2022/12/07 04:34:50;;;;;;;5.00;1.80;;;1.00;99.90;;;;;;4980054;28;20333;-78
2022/12/07 04:37:18;;;;;;;6.63;1.97;;;1.00;99.90;;;;;;4980730;28;20230;-79
2022/12/07 04:39:45;;;;;;;5.53;1.83;;;1.00;99.90;;;;;;4974539;28;20280;-78
2022/12/07 04:42:12;;;;;;;3.90;1.97;;;1.00;99.90;;;;;;4977186;28;20228;-78
2022/12/07 04:44:40;;;;;;;8.80;2.10;;;0.90;99.90;;;;;;4970639;28;20230;-78
2022/12/07 04:47:07;;;;;;;4.03;2.13;;;0.90;99.90;;;;;;4977774;28;20226;-78
2022/12/07 04:49:34;;;;;;;5.00;2.00;;;0.90;99.90;;;;;;4974372;28;20221;-78
2022/12/07 04:52:02;;;;;;;6.63;2.03;;;0.90;99.90;;;;;;4977487;28;20233;-78
2022/12/07 04:54:29;;;;;;;6.97;2.37;;;0.90;99.90;;;;;;4969860;28;20234;-78
2022/12/07 04:56:55;;;;;;;8.50;2.50;;;0.80;99.90;;;;;;4976236;28;20233;-78
2022/12/07 04:59:22;;;;;;;7.00;2.30;;;0.80;99.90;;;;;;4975972;28;20320;-80
2022/12/07 05:01:49;;;;;;;7.73;2.23;;;0.80;99.90;;;;;;4983740;28;20227;-79
2022/12/07 05:04:17;;;;;;;2.97;2.13;;;0.80;99.90;;;;;;4973517;28;20307;-79
2022/12/07 05:06:44;;;;;;;4.70;2.50;;;0.80;99.90;;;;;;4974330;28;20219;-77
2022/12/07 05:09:12;;;;;;;6.20;2.40;;;0.70;99.90;;;;;;4978344;28;20225;-77
2022/12/07 05:11:39;;;;;;;12.67;2.63;;;0.70;99.90;;;;;;4967755;28;20234;-78
2022/12/07 05:14:07;;;;;;;3.60;2.20;;;0.70;99.90;;;;;;4969632;28;20233;-78
2022/12/07 05:16:34;;;;;;;4.80;2.27;;;0.60;99.90;;;;;;4976877;28;20224;-79
2022/12/07 05:19:01;;;;;;;8.60;2.83;;;0.60;99.90;;;;;;4976673;28;20223;-78
2022/12/07 05:21:29;;;;;;;4.77;2.60;;;0.60;99.90;;;;;;4976086;28;20256;-81
2022/12/07 05:23:56;;;;;;;12.17;2.93;;;0.60;99.90;;;;;;4972973;28;20360;-81
2022/12/07 05:26:24;;;;;;;5.90;2.73;;;0.60;99.90;;;;;;4978298;28;20284;-80
2022/12/07 05:28:52;;;;;;;34.50;4.17;;;0.50;99.90;;;;;;4977983;28;20563;-80
2022/12/07 05:31:19;;;;;;;5.47;2.90;;;0.50;99.90;;;;;;4971066;28;20725;-82
2022/12/07 05:33:46;;;;;;;189.67;13.40;;;0.40;99.90;;;;;;4975095;28;20679;-81
2022/12/07 05:36:13;;;;;;;72.90;6.70;;;0.40;99.90;;;;;;4973981;28;20229;-78
2022/12/07 05:38:41;;;;;;;28.70;4.73;;;0.40;99.90;;;;;;4981917;28;20468;-82
2022/12/07 05:42:11;;;;;;;29.93;5.43;;;0.40;99.90;;;;;;4975834;28;21176;-80
2022/12/07 05:43:58;;;;;;;9.17;6.00;;;0.30;99.90;;;;;;4970100;28;20251;-79
2022/12/07 05:46:26;;;;;;;8.70;5.13;;;0.30;99.90;;;;;;4976449;28;20326;-83
2022/12/07 05:48:53;;;;;;;19.73;4.23;;;0.30;99.90;;;;;;4977387;28;20223;-84
2022/12/07 05:51:20;;;;;;;76.73;6.83;;;0.30;99.90;;;;;;4974727;28;20232;-83
2022/12/07 05:53:47;;;;;;;7.80;3.57;;;0.30;99.90;;;;;;4976274;28;20314;-83
2022/12/07 05:56:13;;;;;;;419.37;29.17;;;0.30;99.90;;;;;;4976875;28;20300;-84
2022/12/07 06:01:26;;;;;;;20.70;4.80;;;0.30;99.90;;;;;;4979077;28;20227;-84
2022/12/07 06:03:53;;;;;;;6.67;3.93;;;0.30;99.90;;;;;;4975628;28;20871;-79
2022/12/07 06:06:20;;;;;;;7.17;3.40;;;0.30;99.90;;;;;;4981728;28;20215;-80
2022/12/07 06:08:46;;;;;;;5.53;3.30;;;0.20;99.90;;;;;;4983272;28;20253;-80
2022/12/07 06:13:57;;;;;;;24.43;4.57;;;0.20;99.90;;;;;;4975577;28;20349;-80
2022/12/07 06:16:25;;;;;;;40.07;5.73;;;0.10;99.90;;;;;;4978812;28;20230;-81
2022/12/07 06:18:52;;;;;;;9.57;3.63;;;0.10;99.90;;;;;;4979341;28;20246;-81
2022/12/07 06:21:21;;;;;;;27.27;4.73;;;0.00;99.90;;;;;;4985844;28;20250;-81
2022/12/07 06:23:48;;;;;;;8.90;3.83;;;0.00;99.90;;;;;;4975302;28;21056;-81
2022/12/07 06:26:15;;;;;;;10.27;4.20;;;0.00;99.90;;;;;;4976092;28;20951;-79
2022/12/07 06:28:42;;;;;;;5.87;3.60;;;-0.10;99.90;;;;;;4984953;28;20320;-81
2022/12/07 06:31:09;;;;;;;6.27;3.93;;;-0.10;99.90;;;;;;4986560;28;20249;-79
2022/12/07 06:33:38;;;;;;;5.93;4.00;;;-0.10;99.90;;;;;;4991825;28;20730;-79
2022/12/07 06:36:05;;;;;;;10.00;4.43;;;-0.10;99.90;;;;;;4988204;28;21313;-80
2022/12/07 06:38:32;;;;;;;6.50;4.00;;;-0.10;99.90;;;;;;4986195;28;20300;-81
2022/12/07 06:40:59;;;;;;;5.00;4.00;;;-0.10;99.90;;;;;;4986263;28;20226;-80
2022/12/07 06:43:27;;;;;;;6.03;4.13;;;-0.10;99.90;;;;;;4980259;28;20229;-80
2022/12/07 06:45:54;;;;;;;9.23;4.07;;;-0.10;99.90;;;;;;4982179;28;20254;-81
2022/12/07 06:48:20;;;;;;;5.97;4.00;;;-0.10;99.90;;;;;;4982245;28;20234;-82
2022/12/07 06:50:49;;;;;;;7.80;3.90;;;-0.10;99.90;;;;;;4980893;28;20340;-81
2022/12/07 06:53:16;;;;;;;7.43;3.67;;;0.00;99.90;;;;;;4987974;28;20851;-81
2022/12/07 06:55:42;;;;;;;7.30;3.80;;;0.00;99.90;;;;;;4991269;28;20252;-82
2022/12/07 06:58:09;;;;;;;9.27;3.90;;;0.00;99.90;;;;;;4978570;28;20237;-81
2022/12/07 07:00:36;;;;;;;5.23;3.57;;;0.10;99.90;;;;;;4982514;28;20317;-81
2022/12/07 07:03:02;;;;;;;6.90;4.20;;;0.10;99.90;;;;;;4980321;28;20675;-81
2022/12/07 07:05:29;;;;;;;5.47;3.60;;;0.20;99.90;;;;;;4989987;28;20241;-82
2022/12/07 07:07:57;;;;;;;7.30;3.60;;;0.20;99.90;;;;;;4992359;28;20217;-82
2022/12/07 07:10:24;;;;;;;6.13;3.00;;;0.20;99.90;;;;;;4979094;28;20233;-81
2022/12/07 07:12:50;;;;;;;5.47;4.07;;;0.20;99.90;;;;;;4980018;28;20233;-81
2022/12/07 07:15:17;;;;;;;6.07;3.13;;;0.20;99.90;;;;;;4989127;28;20710;-81
2022/12/07 07:17:44;;;;;;;9.50;3.37;;;0.20;99.90;;;;;;4980036;28;20289;-81
2022/12/07 07:20:12;;;;;;;6.30;3.63;;;0.30;99.90;;;;;;4989922;28;20217;-81
2022/12/07 07:22:39;;;;;;;7.70;3.80;;;0.30;99.90;;;;;;4981432;28;20275;-81
2022/12/07 07:25:07;;;;;;;5.57;2.93;;;0.40;99.90;;;;;;4983487;28;20233;-81
2022/12/07 07:27:34;;;;;;;7.93;2.80;;;0.40;99.90;;;;;;4970999;28;20691;-81
2022/12/07 07:30:00;;;;;;;6.00;3.27;;;0.40;99.90;;;;;;4959906;28;20235;-81
2022/12/07 07:32:27;;;;;;;8.83;3.23;;;0.40;99.90;;;;;;4961940;28;20241;-81
2022/12/07 07:34:54;;;;;;;7.33;3.40;;;0.50;99.90;;;;;;4986421;28;20254;-80
2022/12/07 07:37:21;;;;;;;7.50;2.50;;;0.50;99.90;;;;;;4980978;28;20229;-81
2022/12/07 07:39:47;;;;;;;5.17;2.77;;;0.60;99.90;;;;;;4984935;28;20726;-81
2022/12/07 07:42:15;;;;;;;8.73;2.70;;;0.60;99.90;;;;;;4983175;28;20222;-81
2022/12/07 07:44:43;;;;;;;8.23;2.97;;;0.70;99.90;;;;;;4981373;28;20507;-81
2022/12/07 07:47:10;;;;;;;6.63;2.80;;;0.70;99.90;;;;;;4974807;28;20226;-81
2022/12/07 07:49:37;;;;;;;8.93;2.73;;;0.80;99.90;;;;;;4983053;28;20249;-81
2022/12/07 07:52:05;;;;;;;9.10;2.80;;;0.80;99.90;;;;;;4981833;28;20239;-81
2022/12/07 07:54:32;;;;;;;8.17;2.40;;;0.80;99.90;;;;;;4967617;28;20229;-82
2022/12/07 07:56:59;;;;;;;5.47;2.60;;;0.90;99.90;;;;;;4991774;28;20228;-81
2022/12/07 07:59:27;;;;;;;9.23;2.70;;;0.90;99.90;;;;;;4979045;28;20226;-81
2022/12/07 08:01:53;;;;;;;2.70;2.00;;;1.00;99.90;;;;;;4990839;28;20226;-81
2022/12/07 08:04:20;;;;;;;4.70;2.00;;;1.00;99.90;;;;;;4990097;28;20222;-82
2022/12/07 08:06:47;;;;;;;4.50;2.00;;;1.00;99.90;;;;;;4988165;28;20250;-81
2022/12/07 08:09:13;;;;;;;4.47;1.73;;;1.10;99.90;;;;;;4979104;28;20746;-81
2022/12/07 08:11:40;;;;;;;5.13;1.87;;;1.10;99.90;;;;;;4974322;28;20235;-81
2022/12/07 08:14:07;;;;;;;4.40;1.77;;;1.20;99.90;;;;;;4978140;28;20225;-81
2022/12/07 08:16:34;;;;;;;3.93;1.60;;;1.20;99.90;;;;;;4976174;28;20249;-81
2022/12/07 08:19:01;;;;;;;6.97;2.00;;;1.20;99.90;;;;;;4991191;28;20232;-81
2022/12/07 08:21:28;;;;;;;4.43;1.83;;;1.30;99.90;;;;;;4986202;28;20316;-80
2022/12/07 08:23:54;;;;;;;5.17;1.80;;;1.30;99.90;;;;;;4971347;28;20220;-81
2022/12/07 08:26:21;;;;;;;5.33;2.00;;;1.30;99.90;;;;;;4982088;28;20226;-81
2022/12/07 08:28:48;;;;;;;5.13;1.77;;;1.30;99.90;;;;;;4980498;28;20799;-81
2022/12/07 08:31:18;;;;;;;4.83;1.80;;;1.30;99.90;;;;;;4977446;28;20702;-81
2022/12/07 08:33:47;;;;;;;7.93;2.07;;;1.40;99.90;;;;;;4980938;28;20319;-80
2022/12/07 08:36:14;;;;;;;4.13;1.90;;;1.40;99.90;;;;;;4974552;28;20637;-80
2022/12/07 08:38:42;;;;;;;9.30;2.07;;;1.40;99.90;;;;;;4990219;28;20254;-81
2022/12/07 08:41:09;;;;;;;3.97;1.77;;;1.50;99.90;;;;;;4985235;28;20227;-81
2022/12/07 08:43:37;;;;;;;5.50;1.90;;;1.50;99.90;;;;;;4982212;28;20357;-81
2022/12/07 08:46:09;;;;;;;6.73;2.10;;;1.60;99.90;;;;;;4986943;28;20592;-80
2022/12/07 08:48:39;;;;;;;4.20;1.87;;;1.50;99.90;;;;;;4988200;28;20231;-81
2022/12/07 08:51:08;;;;;;;4.47;2.10;;;1.60;99.90;;;;;;4983493;28;20641;-81
2022/12/07 08:53:36;;;;;;;5.63;2.13;;;1.60;99.90;;;;;;4981634;28;20228;-81
2022/12/07 08:56:03;;;;;;;4.63;1.93;;;1.70;99.90;;;;;;4978966;28;20642;-81
2022/12/07 08:58:29;;;;;;;5.43;2.10;;;1.70;99.90;;;;;;4970339;28;20291;-81
2022/12/07 09:00:56;;;;;;;5.63;2.30;;;1.80;99.90;;;;;;4976534;28;20215;-80
2022/12/07 09:03:23;;;;;;;8.03;2.10;;;1.90;99.90;;;;;;4962243;28;20228;-80
2022/12/07 09:05:49;;;;;;;5.47;2.33;;;1.80;99.90;;;;;;4975464;28;20309;-81
2022/12/07 09:08:18;;;;;;;5.77;1.83;;;1.90;99.90;;;;;;4964587;28;20602;-81
2022/12/07 09:10:45;;;;;;;5.40;2.20;;;1.90;99.90;;;;;;4971447;28;20728;-81
2022/12/07 09:13:12;;;;;;;5.63;2.60;;;2.00;99.90;;;;;;4979139;28;20229;-81
2022/12/07 09:15:38;;;;;;;6.07;2.10;;;2.10;99.90;;;;;;4979438;28;20239;-81
2022/12/07 09:18:06;;;;;;;8.87;2.00;;;2.10;99.90;;;;;;4972886;28;20231;-81
2022/12/07 09:20:33;;;;;;;5.97;1.70;;;2.20;99.90;;;;;;4971395;28;20831;-81
2022/12/07 09:22:59;;;;;;;11.17;2.03;;;2.30;99.90;;;;;;4975370;28;20219;-81
2022/12/07 09:25:27;;;;;;;7.80;1.97;;;2.40;99.90;;;;;;4977727;28;20242;-80
2022/12/07 09:27:57;;;;;;;4.37;1.60;;;2.50;99.90;;;;;;4978646;28;20221;-80
2022/12/07 09:30:24;;;;;;;6.13;1.73;;;2.60;99.90;;;;;;4974786;28;20283;-80
2022/12/07 09:32:53;;;;;;;7.03;2.30;;;2.60;99.90;;;;;;4972859;28;20217;-81
2022/12/07 09:35:20;;;;;;;5.40;1.77;;;2.70;99.90;;;;;;4969677;28;20248;-81
2022/12/07 09:37:47;;;;;;;9.07;2.30;;;2.70;99.90;;;;;;4971042;28;20237;-80
2022/12/07 09:40:15;;;;;;;8.37;2.00;;;2.80;99.90;;;;;;4969954;28;20243;-81
2022/12/07 09:42:45;;;;;;;6.53;1.80;;;2.90;99.90;;;;;;4977901;28;20412;-81
2022/12/07 09:45:15;;;;;;;5.77;2.00;;;2.90;99.90;;;;;;4976491;28;20818;-81
2022/12/07 09:47:42;;;;;;;6.17;2.17;;;3.00;99.90;;;;;;4973091;28;20226;-81
2022/12/07 09:50:14;;;;;;;11.13;1.90;;;3.00;99.90;;;;;;4970420;28;20236;-80
2022/12/07 09:52:43;;;;;;;4.37;1.87;;;3.10;99.90;;;;;;4972390;28;20230;-80
2022/12/07 09:55:15;;;;;;;6.00;2.00;;;3.20;99.90;;;;;;4966247;28;20245;-80
2022/12/07 09:57:44;;;;;;;8.70;2.20;;;3.30;99.90;;;;;;4967479;28;20318;-80
2022/12/07 10:00:14;;;;;;;7.27;2.10;;;3.30;99.90;;;;;;4966933;28;20250;-80
2022/12/07 10:02:44;;;;;;;5.50;1.60;;;3.40;99.90;;;;;;4966941;28;20222;-80
2022/12/07 10:05:15;;;;;;;8.70;2.07;;;3.40;99.90;;;;;;4970423;28;20311;-81
2022/12/07 10:07:42;;;;;;;4.07;1.70;;;3.50;99.90;;;;;;4973050;28;20233;-80
2022/12/07 10:10:15;;;;;;;6.40;2.57;;;3.50;99.90;;;;;;4977570;28;20222;-80
2022/12/07 10:13:00;;;;;;;7.40;2.33;;;3.60;99.90;;;;;;4975948;28;20246;-79
2022/12/07 10:15:58;;;;;;;8.83;1.83;;;3.70;99.90;;;;;;4977226;28;20242;-80
2022/12/07 10:18:30;;;;;;;3.83;1.40;;;3.80;99.90;;;;;;4915843;29;20234;-79
2022/12/07 10:21:16;;;;;;;5.77;1.53;;;3.90;99.90;;;;;;4961130;28;20224;-79
2022/12/07 10:23:59;;;;;;;7.07;2.00;;;4.00;99.90;;;;;;4967454;28;20230;-79
2022/12/07 10:26:31;;;;;;;5.47;1.50;;;4.00;99.90;;;;;;4977135;28;20236;-79
2022/12/07 10:29:03;;;;;;;5.50;1.40;;;4.10;99.90;;;;;;4978298;28;20242;-80
2022/12/07 10:31:30;;;;;;;3.60;1.60;;;4.10;99.90;;;;;;4973894;28;20231;-80
2022/12/07 10:33:58;;;;;;;4.90;1.57;;;4.20;99.90;;;;;;4978560;28;20218;-80
2022/12/07 10:36:27;;;;;;;6.53;1.43;;;4.20;99.90;;;;;;4980915;28;22169;-80
2022/12/07 10:39:00;;;;;;;8.07;1.60;;;4.20;99.90;;;;;;4976271;28;20339;-80
2022/12/07 10:41:27;;;;;;;8.83;1.73;;;4.30;99.90;;;;;;4980675;28;20231;-80
2022/12/07 10:43:56;;;;;;;6.43;1.83;;;4.30;99.90;;;;;;4977741;28;20241;-80
2022/12/07 10:46:52;;;;;;;7.50;2.03;;;4.30;99.90;;;;;;4982382;28;20715;-80
2022/12/07 10:50:10;;;;;;;5.83;1.70;;;4.40;99.90;;;;;;4981005;28;20228;-80
2022/12/07 10:52:54;;;;;;;5.13;1.87;;;4.40;99.90;;;;;;4978139;28;20235;-80
2022/12/07 10:55:26;;;;;;;9.57;2.30;;;4.40;99.90;;;;;;4974167;28;20258;-80
2022/12/07 10:58:22;;;;;;;8.97;1.90;;;4.40;99.90;;;;;;4983857;28;20767;-80
2022/12/07 11:00:59;;;;;;;5.13;1.40;;;4.40;99.90;;;;;;4976559;28;20229;-79
2022/12/07 11:03:45;;;;;;;5.80;1.70;;;4.40;99.90;;;;;;4980033;28;20231;-80
2022/12/07 11:06:22;;;;;;;6.63;2.70;;;4.40;99.90;;;;;;4985603;28;20242;-80
2022/12/07 11:09:04;;;;;;;6.23;2.37;;;4.40;99.90;;;;;;4980564;28;20227;-79
2022/12/07 11:11:36;;;;;;;5.83;1.80;;;4.40;99.90;;;;;;4979110;28;20230;-79
2022/12/07 11:14:15;;;;;;;7.27;2.10;;;4.40;99.90;;;;;;4982938;28;20219;-79
2022/12/07 11:16:59;;;;;;;6.67;1.20;;;4.40;99.90;;;;;;4963049;28;20233;-79
2022/12/07 11:19:41;;;;;;;4.43;1.47;;;4.40;99.90;;;;;;4971927;28;20258;-79
2022/12/07 11:22:17;;;;;;;3.17;1.57;;;4.50;99.90;;;;;;4978125;28;20845;-79
2022/12/07 11:24:55;;;;;;;4.97;1.57;;;4.50;99.90;;;;;;4976321;28;20345;-79
2022/12/07 11:27:34;;;;;;;4.57;1.50;;;4.50;99.90;;;;;;4978248;28;20381;-79
2022/12/07 11:30:16;;;;;;;5.73;1.57;;;4.50;99.90;;;;;;4979163;28;20303;-78
2022/12/07 11:32:57;;;;;;;8.87;1.83;;;4.50;99.90;;;;;;4970511;28;20882;-79
2022/12/07 11:35:36;;;;;;;4.63;1.50;;;4.50;99.90;;;;;;4978972;28;20734;-80
2022/12/07 11:38:09;;;;;;;6.77;1.67;;;4.50;99.90;;;;;;4986916;28;20527;-80
2022/12/07 11:40:37;;;;;;;6.60;1.50;;;4.50;99.90;;;;;;4963346;28;20232;-80
2022/12/07 11:43:11;;;;;;;4.30;1.30;;;4.50;99.90;;;;;;4967256;28;20250;-80
2022/12/07 11:45:42;;;;;;;4.50;1.17;;;4.50;99.90;;;;;;4969617;28;20256;-80
2022/12/07 11:48:17;;;;;;;5.80;1.60;;;4.50;99.90;;;;;;4976241;28;20232;-81
2022/12/07 11:50:49;;;;;;;5.43;1.43;;;4.50;99.90;;;;;;4982489;28;20768;-79
2022/12/07 11:53:21;;;;;;;6.43;1.70;;;4.50;99.90;;;;;;4980526;28;20509;-80
2022/12/07 11:55:53;;;;;;;4.77;1.20;;;4.50;99.90;;;;;;4982911;28;20227;-79
2022/12/07 11:58:35;;;;;;;4.63;1.27;;;4.50;99.90;;;;;;4976648;28;20231;-79
2022/12/07 12:01:14;;;;;;;4.70;1.53;;;4.50;99.90;;;;;;4981611;28;20241;-80
2022/12/07 12:03:44;;;;;;;5.93;1.47;;;4.50;99.90;;;;;;4971768;28;20226;-79
2022/12/07 12:06:12;;;;;;;5.97;1.43;;;4.50;99.90;;;;;;4980895;28;20257;-80
2022/12/07 12:08:45;;;;;;;4.07;1.27;;;4.50;99.90;;;;;;4988314;28;20251;-80
2022/12/07 12:11:28;;;;;;;7.10;1.67;;;4.50;99.90;;;;;;4983979;28;20467;-79
2022/12/07 12:14:33;;;;;;;4.97;1.57;;;4.60;99.90;;;;;;4983339;28;20219;-79
2022/12/07 12:17:20;;;;;;;6.37;1.30;;;4.60;99.90;;;;;;4976387;28;20766;-80
2022/12/07 12:20:00;;;;;;;4.80;1.47;;;4.60;99.90;;;;;;4979069;28;20238;-79
2022/12/07 12:22:36;;;;;;;7.47;1.63;;;4.60;99.90;;;;;;4980250;28;20231;-79
2022/12/07 12:25:06;;;;;;;6.43;1.60;;;4.60;99.90;;;;;;4979232;28;20401;-79
2022/12/07 12:27:37;;;;;;;7.63;1.20;;;4.60;99.90;;;;;;4983837;28;20935;-79
2022/12/07 12:30:06;;;;;;;10.73;2.10;;;4.60;99.90;;;;;;4982376;28;20223;-80
2022/12/07 12:32:39;;;;;;;6.03;1.33;;;4.60;99.90;;;;;;4981334;28;20227;-80
2022/12/07 12:35:23;;;;;;;7.20;1.20;;;4.50;99.90;;;;;;4977722;28;20254;-80
2022/12/07 12:37:53;;;;;;;4.50;0.93;;;4.50;99.90;;;;;;4981889;28;20277;-79
2022/12/07 12:40:43;;;;;;;6.60;1.80;;;4.50;99.90;;;;;;4968152;28;20230;-80
2022/12/07 12:43:57;;;;;;;6.37;1.77;;;4.40;99.90;;;;;;4976474;28;20223;-79
2022/12/07 12:46:50;;;;;;;7.73;1.60;;;4.40;99.90;;;;;;4976888;28;20313;-79
2022/12/07 12:49:38;;;;;;;7.83;1.43;;;4.40;99.90;;;;;;4976975;28;20222;-79
2022/12/07 12:52:48;;;;;;;5.90;1.30;;;4.40;99.90;;;;;;4983649;28;20234;-80
2022/12/07 12:55:21;;;;;;;5.63;1.50;;;4.40;99.90;;;;;;4979254;28;20243;-79
2022/12/07 12:58:08;;;;;;;4.57;1.33;;;4.40;99.90;;;;;;4983214;28;20282;-80
2022/12/07 13:00:35;;;;;;;6.63;1.60;;;4.30;99.90;;;;;;4974856;28;20226;-81
2022/12/07 13:03:02;;;;;;;7.77;1.50;;;4.30;99.90;;;;;;4966937;28;20237;-81
2022/12/07 13:05:31;;;;;;;4.87;1.10;;;4.30;99.90;;;;;;4975382;28;20237;-81
2022/12/07 13:08:01;;;;;;;7.53;1.60;;;4.20;99.90;;;;;;4974877;28;20219;-80
2022/12/07 13:10:46;;;;;;;6.70;1.67;;;4.20;99.90;;;;;;4975384;28;20222;-80
2022/12/07 13:13:33;;;;;;;3.60;1.00;;;4.20;99.90;;;;;;4979622;28;20841;-80
2022/12/07 13:16:39;;;;;;;8.13;1.40;;;4.10;99.90;;;;;;4978785;28;20300;-81
2022/12/07 13:19:39;;;;;;;7.37;1.30;;;4.10;99.90;;;;;;4988163;28;20222;-80